sensor_id;sensor_type;location;lat;lon;timestamp;P1;durP1;ratioP1;P2;durP2;ratioP2
68690;SDS011;55675;49.588;8.640;2022-10-17T00:00:12;4.03;;;2.90;;
68690;SDS011;55675;49.588;8.640;2022-10-17T00:02:37;3.60;;;2.90;;
68690;SDS011;55675;49.588;8.640;2022-10-17T00:05:03;9.73;;;2.90;;
68690;SDS011;55675;49.588;8.640;2022-10-17T00:07:29;3.87;;;2.63;;
68690;SDS011;55675;49.588;8.640;2022-10-17T00:09:54;5.57;;;3.00;;
68690;SDS011;55675;49.588;8.640;2022-10-17T00:12:20;4.03;;;2.97;;
68690;SDS011;55675;49.588;8.640;2022-10-17T00:14:45;6.03;;;2.90;;
68690;SDS011;55675;49.588;8.640;2022-10-17T00:17:11;4.37;;;2.83;;
68690;SDS011;55675;49.588;8.640;2022-10-17T00:19:37;6.13;;;2.90;;
68690;SDS011;55675;49.588;8.640;2022-10-17T00:22:02;4.83;;;3.03;;
68690;SDS011;55675;49.588;8.640;2022-10-17T00:24:29;4.00;;;2.97;;
68690;SDS011;55675;49.588;8.640;2022-10-17T00:26:55;3.17;;;2.90;;
68690;SDS011;55675;49.588;8.640;2022-10-17T00:29:20;2.70;;;2.50;;
68690;SDS011;55675;49.588;8.640;2022-10-17T00:31:46;5.13;;;2.90;;
68690;SDS011;55675;49.588;8.640;2022-10-17T00:34:11;3.33;;;3.00;;
68690;SDS011;55675;49.588;8.640;2022-10-17T00:36:37;3.50;;;2.73;;
68690;SDS011;55675;49.588;8.640;2022-10-17T00:39:03;5.93;;;2.73;;
68690;SDS011;55675;49.588;8.640;2022-10-17T00:41:29;8.30;;;3.30;;
68690;SDS011;55675;49.588;8.640;2022-10-17T00:44:01;3.33;;;2.87;;
68690;SDS011;55675;49.588;8.640;2022-10-17T00:46:30;3.33;;;2.50;;
68690;SDS011;55675;49.588;8.640;2022-10-17T00:49:04;5.87;;;2.80;;
68690;SDS011;55675;49.588;8.640;2022-10-17T00:51:45;5.57;;;3.00;;
68690;SDS011;55675;49.588;8.640;2022-10-17T00:54:13;7.37;;;2.80;;
68690;SDS011;55675;49.588;8.640;2022-10-17T00:56:41;5.33;;;3.17;;
68690;SDS011;55675;49.588;8.640;2022-10-17T00:59:08;4.60;;;3.20;;
68690;SDS011;55675;49.588;8.640;2022-10-17T01:01:36;4.33;;;3.17;;
68690;SDS011;55675;49.588;8.640;2022-10-17T01:04:02;4.30;;;2.70;;
68690;SDS011;55675;49.588;8.640;2022-10-17T01:06:27;4.27;;;3.03;;
68690;SDS011;55675;49.588;8.640;2022-10-17T01:08:53;6.57;;;2.87;;
68690;SDS011;55675;49.588;8.640;2022-10-17T01:14:12;5.67;;;3.20;;
68690;SDS011;55675;49.588;8.640;2022-10-17T01:16:51;5.03;;;2.70;;
68690;SDS011;55675;49.588;8.640;2022-10-17T01:24:40;4.87;;;3.13;;
68690;SDS011;55675;49.588;8.640;2022-10-17T01:33:28;6.00;;;2.97;;
68690;SDS011;55675;49.588;8.640;2022-10-17T01:39:02;4.47;;;3.17;;
68690;SDS011;55675;49.588;8.640;2022-10-17T01:41:54;5.10;;;3.30;;
68690;SDS011;55675;49.588;8.640;2022-10-17T01:44:38;5.83;;;3.10;;
68690;SDS011;55675;49.588;8.640;2022-10-17T01:47:25;6.27;;;2.67;;
68690;SDS011;55675;49.588;8.640;2022-10-17T01:49:55;4.77;;;3.00;;
68690;SDS011;55675;49.588;8.640;2022-10-17T01:52:28;5.87;;;2.90;;
68690;SDS011;55675;49.588;8.640;2022-10-17T01:55:19;5.80;;;2.90;;
68690;SDS011;55675;49.588;8.640;2022-10-17T01:57:54;3.13;;;2.83;;
68690;SDS011;55675;49.588;8.640;2022-10-17T02:03:45;4.37;;;3.00;;
68690;SDS011;55675;49.588;8.640;2022-10-17T02:06:14;6.90;;;3.00;;
68690;SDS011;55675;49.588;8.640;2022-10-17T02:08:43;5.97;;;2.73;;
68690;SDS011;55675;49.588;8.640;2022-10-17T02:11:14;5.03;;;3.13;;
68690;SDS011;55675;49.588;8.640;2022-10-17T02:14:20;6.60;;;3.20;;
68690;SDS011;55675;49.588;8.640;2022-10-17T02:25:11;5.47;;;3.20;;
68690;SDS011;55675;49.588;8.640;2022-10-17T02:27:51;3.87;;;2.90;;
68690;SDS011;55675;49.588;8.640;2022-10-17T02:30:35;8.30;;;3.03;;
68690;SDS011;55675;49.588;8.640;2022-10-17T02:33:11;3.20;;;3.00;;
68690;SDS011;55675;49.588;8.640;2022-10-17T02:35:43;6.23;;;3.10;;
68690;SDS011;55675;49.588;8.640;2022-10-17T02:38:13;5.80;;;3.00;;
68690;SDS011;55675;49.588;8.640;2022-10-17T02:40:39;4.73;;;3.37;;
68690;SDS011;55675;49.588;8.640;2022-10-17T02:43:05;2.80;;;2.60;;
68690;SDS011;55675;49.588;8.640;2022-10-17T02:45:32;4.67;;;2.50;;
68690;SDS011;55675;49.588;8.640;2022-10-17T02:48:03;5.90;;;2.90;;
68690;SDS011;55675;49.588;8.640;2022-10-17T02:50:39;3.20;;;2.87;;
68690;SDS011;55675;49.588;8.640;2022-10-17T02:53:16;4.30;;;2.70;;
68690;SDS011;55675;49.588;8.640;2022-10-17T02:55:52;4.50;;;2.80;;
68690;SDS011;55675;49.588;8.640;2022-10-17T02:58:24;5.50;;;3.10;;
68690;SDS011;55675;49.588;8.640;2022-10-17T03:00:54;4.10;;;2.80;;
68690;SDS011;55675;49.588;8.640;2022-10-17T03:03:21;4.17;;;2.70;;
68690;SDS011;55675;49.588;8.640;2022-10-17T03:05:50;3.57;;;2.67;;
68690;SDS011;55675;49.588;8.640;2022-10-17T03:08:16;5.80;;;2.57;;
68690;SDS011;55675;49.588;8.640;2022-10-17T03:10:42;4.97;;;2.60;;
68690;SDS011;55675;49.588;8.640;2022-10-17T03:13:08;3.27;;;2.60;;
68690;SDS011;55675;49.588;8.640;2022-10-17T03:15:34;3.83;;;2.40;;
68690;SDS011;55675;49.588;8.640;2022-10-17T03:17:59;4.90;;;2.67;;
68690;SDS011;55675;49.588;8.640;2022-10-17T03:20:25;3.97;;;3.20;;
68690;SDS011;55675;49.588;8.640;2022-10-17T03:22:50;2.73;;;2.53;;
68690;SDS011;55675;49.588;8.640;2022-10-17T03:25:16;3.57;;;2.87;;
68690;SDS011;55675;49.588;8.640;2022-10-17T03:27:41;3.63;;;2.70;;
68690;SDS011;55675;49.588;8.640;2022-10-17T03:30:07;5.10;;;2.80;;
68690;SDS011;55675;49.588;8.640;2022-10-17T03:32:33;7.07;;;2.90;;
68690;SDS011;55675;49.588;8.640;2022-10-17T03:34:59;3.07;;;2.77;;
68690;SDS011;55675;49.588;8.640;2022-10-17T03:37:25;4.90;;;2.47;;
68690;SDS011;55675;49.588;8.640;2022-10-17T03:39:50;3.43;;;2.40;;
68690;SDS011;55675;49.588;8.640;2022-10-17T03:42:16;2.90;;;2.70;;
68690;SDS011;55675;49.588;8.640;2022-10-17T03:44:41;4.33;;;2.80;;
68690;SDS011;55675;49.588;8.640;2022-10-17T03:47:07;3.37;;;2.90;;
68690;SDS011;55675;49.588;8.640;2022-10-17T03:49:32;3.00;;;2.67;;
68690;SDS011;55675;49.588;8.640;2022-10-17T03:51:58;4.57;;;2.83;;
68690;SDS011;55675;49.588;8.640;2022-10-17T03:54:23;3.47;;;2.97;;
68690;SDS011;55675;49.588;8.640;2022-10-17T03:56:49;5.67;;;2.47;;
68690;SDS011;55675;49.588;8.640;2022-10-17T03:59:14;3.83;;;2.70;;
68690;SDS011;55675;49.588;8.640;2022-10-17T04:01:40;3.93;;;2.80;;
68690;SDS011;55675;49.588;8.640;2022-10-17T04:04:06;4.53;;;2.70;;
68690;SDS011;55675;49.588;8.640;2022-10-17T04:06:32;5.33;;;3.00;;
68690;SDS011;55675;49.588;8.640;2022-10-17T04:08:58;3.90;;;2.63;;
68690;SDS011;55675;49.588;8.640;2022-10-17T04:11:24;3.10;;;2.77;;
68690;SDS011;55675;49.588;8.640;2022-10-17T04:13:53;4.37;;;2.80;;
68690;SDS011;55675;49.588;8.640;2022-10-17T04:16:21;5.10;;;3.00;;
68690;SDS011;55675;49.588;8.640;2022-10-17T04:18:51;3.30;;;2.80;;
68690;SDS011;55675;49.588;8.640;2022-10-17T04:21:18;11.60;;;2.90;;
68690;SDS011;55675;49.588;8.640;2022-10-17T04:23:43;3.43;;;3.10;;
68690;SDS011;55675;49.588;8.640;2022-10-17T04:26:09;4.60;;;3.00;;
68690;SDS011;55675;49.588;8.640;2022-10-17T04:28:34;8.00;;;2.93;;
68690;SDS011;55675;49.588;8.640;2022-10-17T04:31:02;5.87;;;3.00;;
68690;SDS011;55675;49.588;8.640;2022-10-17T04:33:31;3.63;;;2.63;;
68690;SDS011;55675;49.588;8.640;2022-10-17T04:35:58;2.83;;;2.53;;
68690;SDS011;55675;49.588;8.640;2022-10-17T04:38:29;6.97;;;2.67;;
68690;SDS011;55675;49.588;8.640;2022-10-17T04:40:58;7.03;;;2.80;;
68690;SDS011;55675;49.588;8.640;2022-10-17T04:43:31;3.77;;;2.63;;
68690;SDS011;55675;49.588;8.640;2022-10-17T04:45:59;4.57;;;2.83;;
68690;SDS011;55675;49.588;8.640;2022-10-17T04:48:26;5.90;;;2.53;;
68690;SDS011;55675;49.588;8.640;2022-10-17T04:53:20;3.40;;;2.50;;
68690;SDS011;55675;49.588;8.640;2022-10-17T04:55:46;3.47;;;2.93;;
68690;SDS011;55675;49.588;8.640;2022-10-17T04:58:11;3.07;;;2.77;;
68690;SDS011;55675;49.588;8.640;2022-10-17T05:00:37;2.97;;;2.73;;
68690;SDS011;55675;49.588;8.640;2022-10-17T05:03:02;3.67;;;2.70;;
68690;SDS011;55675;49.588;8.640;2022-10-17T05:05:29;5.30;;;2.63;;
68690;SDS011;55675;49.588;8.640;2022-10-17T05:07:54;4.13;;;2.70;;
68690;SDS011;55675;49.588;8.640;2022-10-17T05:10:20;4.00;;;2.77;;
68690;SDS011;55675;49.588;8.640;2022-10-17T05:12:46;5.73;;;3.23;;
68690;SDS011;55675;49.588;8.640;2022-10-17T05:15:12;5.87;;;3.20;;
68690;SDS011;55675;49.588;8.640;2022-10-17T05:17:38;5.93;;;2.77;;
68690;SDS011;55675;49.588;8.640;2022-10-17T05:20:03;4.50;;;2.90;;
68690;SDS011;55675;49.588;8.640;2022-10-17T05:22:29;4.97;;;2.67;;
68690;SDS011;55675;49.588;8.640;2022-10-17T05:24:55;3.30;;;3.00;;
68690;SDS011;55675;49.588;8.640;2022-10-17T05:27:21;5.07;;;3.07;;
68690;SDS011;55675;49.588;8.640;2022-10-17T05:29:46;4.50;;;3.13;;
68690;SDS011;55675;49.588;8.640;2022-10-17T05:32:12;5.60;;;2.77;;
68690;SDS011;55675;49.588;8.640;2022-10-17T05:34:38;8.30;;;5.83;;
68690;SDS011;55675;49.588;8.640;2022-10-17T05:37:04;4.40;;;3.93;;
68690;SDS011;55675;49.588;8.640;2022-10-17T05:39:29;6.57;;;3.10;;
68690;SDS011;55675;49.588;8.640;2022-10-17T05:41:55;5.17;;;3.30;;
68690;SDS011;55675;49.588;8.640;2022-10-17T05:44:20;3.33;;;3.03;;
68690;SDS011;55675;49.588;8.640;2022-10-17T05:46:49;4.13;;;2.50;;
68690;SDS011;55675;49.588;8.640;2022-10-17T05:49:15;7.80;;;3.13;;
68690;SDS011;55675;49.588;8.640;2022-10-17T05:51:41;3.60;;;2.80;;
68690;SDS011;55675;49.588;8.640;2022-10-17T05:54:07;3.67;;;2.87;;
68690;SDS011;55675;49.588;8.640;2022-10-17T05:56:33;4.13;;;3.20;;
68690;SDS011;55675;49.588;8.640;2022-10-17T05:58:59;4.83;;;3.00;;
68690;SDS011;55675;49.588;8.640;2022-10-17T06:01:24;3.37;;;3.07;;
68690;SDS011;55675;49.588;8.640;2022-10-17T06:03:50;5.73;;;3.27;;
68690;SDS011;55675;49.588;8.640;2022-10-17T06:06:16;8.23;;;3.10;;
68690;SDS011;55675;49.588;8.640;2022-10-17T06:08:42;4.83;;;3.03;;
68690;SDS011;55675;49.588;8.640;2022-10-17T06:11:08;6.40;;;3.70;;
68690;SDS011;55675;49.588;8.640;2022-10-17T06:13:34;3.57;;;2.90;;
68690;SDS011;55675;49.588;8.640;2022-10-17T06:15:59;4.97;;;3.17;;
68690;SDS011;55675;49.588;8.640;2022-10-17T06:18:25;7.40;;;3.60;;
68690;SDS011;55675;49.588;8.640;2022-10-17T06:20:51;5.50;;;3.80;;
68690;SDS011;55675;49.588;8.640;2022-10-17T06:23:17;5.80;;;3.93;;
68690;SDS011;55675;49.588;8.640;2022-10-17T06:25:42;5.37;;;3.77;;
68690;SDS011;55675;49.588;8.640;2022-10-17T06:28:08;5.43;;;3.77;;
68690;SDS011;55675;49.588;8.640;2022-10-17T06:30:36;5.60;;;4.20;;
68690;SDS011;55675;49.588;8.640;2022-10-17T06:33:03;4.63;;;3.60;;
68690;SDS011;55675;49.588;8.640;2022-10-17T06:35:29;8.23;;;4.10;;
68690;SDS011;55675;49.588;8.640;2022-10-17T06:37:55;4.73;;;3.83;;
68690;SDS011;55675;49.588;8.640;2022-10-17T06:40:20;6.40;;;4.23;;
68690;SDS011;55675;49.588;8.640;2022-10-17T06:42:46;7.43;;;3.80;;
68690;SDS011;55675;49.588;8.640;2022-10-17T06:45:12;6.27;;;3.50;;
68690;SDS011;55675;49.588;8.640;2022-10-17T06:47:37;6.80;;;3.37;;
68690;SDS011;55675;49.588;8.640;2022-10-17T06:50:03;7.00;;;3.70;;
68690;SDS011;55675;49.588;8.640;2022-10-17T06:52:29;5.40;;;4.03;;
68690;SDS011;55675;49.588;8.640;2022-10-17T06:54:54;4.77;;;3.80;;
68690;SDS011;55675;49.588;8.640;2022-10-17T06:57:20;6.03;;;3.63;;
68690;SDS011;55675;49.588;8.640;2022-10-17T06:59:45;4.50;;;3.50;;
68690;SDS011;55675;49.588;8.640;2022-10-17T07:02:11;6.17;;;3.57;;
68690;SDS011;55675;49.588;8.640;2022-10-17T07:04:36;4.43;;;3.87;;
68690;SDS011;55675;49.588;8.640;2022-10-17T07:07:02;7.27;;;3.70;;
68690;SDS011;55675;49.588;8.640;2022-10-17T07:09:29;7.53;;;4.20;;
68690;SDS011;55675;49.588;8.640;2022-10-17T07:11:55;4.87;;;3.90;;
68690;SDS011;55675;49.588;8.640;2022-10-17T07:14:21;6.03;;;3.53;;
68690;SDS011;55675;49.588;8.640;2022-10-17T07:16:47;5.20;;;3.43;;
68690;SDS011;55675;49.588;8.640;2022-10-17T07:19:12;4.13;;;3.40;;
68690;SDS011;55675;49.588;8.640;2022-10-17T07:21:38;7.63;;;3.20;;
68690;SDS011;55675;49.588;8.640;2022-10-17T07:24:03;6.93;;;3.83;;
68690;SDS011;55675;49.588;8.640;2022-10-17T07:26:31;4.53;;;3.77;;
68690;SDS011;55675;49.588;8.640;2022-10-17T07:28:57;7.80;;;3.80;;
68690;SDS011;55675;49.588;8.640;2022-10-17T07:31:22;6.27;;;3.97;;
68690;SDS011;55675;49.588;8.640;2022-10-17T07:33:48;5.17;;;3.60;;
68690;SDS011;55675;49.588;8.640;2022-10-17T07:36:15;7.27;;;3.67;;
68690;SDS011;55675;49.588;8.640;2022-10-17T07:38:41;5.13;;;3.27;;
68690;SDS011;55675;49.588;8.640;2022-10-17T07:41:07;6.13;;;3.73;;
68690;SDS011;55675;49.588;8.640;2022-10-17T07:43:33;4.90;;;3.60;;
68690;SDS011;55675;49.588;8.640;2022-10-17T07:46:00;7.60;;;4.10;;
68690;SDS011;55675;49.588;8.640;2022-10-17T07:48:26;11.27;;;3.67;;
68690;SDS011;55675;49.588;8.640;2022-10-17T07:50:52;6.73;;;4.00;;
68690;SDS011;55675;49.588;8.640;2022-10-17T07:53:18;5.27;;;3.93;;
68690;SDS011;55675;49.588;8.640;2022-10-17T07:55:43;4.73;;;4.00;;
68690;SDS011;55675;49.588;8.640;2022-10-17T07:58:10;6.47;;;4.00;;
68690;SDS011;55675;49.588;8.640;2022-10-17T08:00:36;4.97;;;3.70;;
68690;SDS011;55675;49.588;8.640;2022-10-17T08:03:02;6.37;;;4.17;;
68690;SDS011;55675;49.588;8.640;2022-10-17T08:05:28;6.23;;;3.90;;
68690;SDS011;55675;49.588;8.640;2022-10-17T08:07:54;4.13;;;3.63;;
68690;SDS011;55675;49.588;8.640;2022-10-17T08:10:20;4.63;;;3.80;;
68690;SDS011;55675;49.588;8.640;2022-10-17T08:12:51;4.37;;;3.83;;
68690;SDS011;55675;49.588;8.640;2022-10-17T08:15:18;4.53;;;3.70;;
68690;SDS011;55675;49.588;8.640;2022-10-17T08:17:43;7.77;;;4.20;;
68690;SDS011;55675;49.588;8.640;2022-10-17T08:20:09;8.53;;;4.13;;
68690;SDS011;55675;49.588;8.640;2022-10-17T08:22:35;7.67;;;4.07;;
68690;SDS011;55675;49.588;8.640;2022-10-17T08:25:01;7.73;;;4.33;;
68690;SDS011;55675;49.588;8.640;2022-10-17T08:27:26;6.07;;;3.47;;
68690;SDS011;55675;49.588;8.640;2022-10-17T08:29:52;4.20;;;3.60;;
68690;SDS011;55675;49.588;8.640;2022-10-17T08:32:19;5.53;;;3.90;;
68690;SDS011;55675;49.588;8.640;2022-10-17T08:34:46;6.93;;;3.93;;
68690;SDS011;55675;49.588;8.640;2022-10-17T08:37:12;5.27;;;3.50;;
68690;SDS011;55675;49.588;8.640;2022-10-17T08:39:39;7.30;;;3.90;;
68690;SDS011;55675;49.588;8.640;2022-10-17T08:45:20;5.37;;;3.80;;
68690;SDS011;55675;49.588;8.640;2022-10-17T08:47:58;5.83;;;4.03;;
68690;SDS011;55675;49.588;8.640;2022-10-17T08:50:28;4.87;;;3.53;;
68690;SDS011;55675;49.588;8.640;2022-10-17T08:55:47;8.90;;;3.63;;
68690;SDS011;55675;49.588;8.640;2022-10-17T08:58:16;5.47;;;2.90;;
68690;SDS011;55675;49.588;8.640;2022-10-17T09:04:08;3.23;;;2.93;;
68690;SDS011;55675;49.588;8.640;2022-10-17T09:06:43;2.60;;;2.40;;
68690;SDS011;55675;49.588;8.640;2022-10-17T09:09:24;5.53;;;2.70;;
68690;SDS011;55675;49.588;8.640;2022-10-17T09:14:57;8.77;;;2.60;;
68690;SDS011;55675;49.588;8.640;2022-10-17T09:17:48;4.07;;;2.77;;
68690;SDS011;55675;49.588;8.640;2022-10-17T09:20:36;4.10;;;2.60;;
68690;SDS011;55675;49.588;8.640;2022-10-17T09:23:17;3.93;;;2.60;;
68690;SDS011;55675;49.588;8.640;2022-10-17T09:25:47;4.60;;;2.10;;
68690;SDS011;55675;49.588;8.640;2022-10-17T09:28:26;3.90;;;2.63;;
68690;SDS011;55675;49.588;8.640;2022-10-17T09:33:27;3.80;;;2.20;;
68690;SDS011;55675;49.588;8.640;2022-10-17T09:35:57;3.63;;;2.40;;
68690;SDS011;55675;49.588;8.640;2022-10-17T09:38:25;3.70;;;1.90;;
68690;SDS011;55675;49.588;8.640;2022-10-17T09:41:06;4.63;;;2.10;;
68690;SDS011;55675;49.588;8.640;2022-10-17T09:43:41;2.93;;;2.40;;
68690;SDS011;55675;49.588;8.640;2022-10-17T09:48:49;3.50;;;2.20;;
68690;SDS011;55675;49.588;8.640;2022-10-17T09:51:19;2.80;;;2.30;;
68690;SDS011;55675;49.588;8.640;2022-10-17T09:53:48;2.63;;;2.30;;
68690;SDS011;55675;49.588;8.640;2022-10-17T09:56:18;4.23;;;2.23;;
68690;SDS011;55675;49.588;8.640;2022-10-17T09:58:51;2.50;;;2.30;;
68690;SDS011;55675;49.588;8.640;2022-10-17T10:04:34;2.93;;;2.20;;
68690;SDS011;55675;49.588;8.640;2022-10-17T10:06:39;3.53;;;2.23;;
68690;SDS011;55675;49.588;8.640;2022-10-17T10:09:06;4.37;;;2.20;;
68690;SDS011;55675;49.588;8.640;2022-10-17T10:11:59;5.97;;;2.70;;
68690;SDS011;55675;49.588;8.640;2022-10-17T10:14:40;4.90;;;2.20;;
68690;SDS011;55675;49.588;8.640;2022-10-17T10:17:23;3.43;;;2.00;;
68690;SDS011;55675;49.588;8.640;2022-10-17T10:20:00;4.47;;;2.50;;
68690;SDS011;55675;49.588;8.640;2022-10-17T10:22:27;3.57;;;2.60;;
68690;SDS011;55675;49.588;8.640;2022-10-17T10:27:41;7.57;;;3.27;;
68690;SDS011;55675;49.588;8.640;2022-10-17T10:30:19;4.00;;;2.27;;
68690;SDS011;55675;49.588;8.640;2022-10-17T10:32:55;3.47;;;2.37;;
68690;SDS011;55675;49.588;8.640;2022-10-17T10:35:26;4.70;;;1.80;;
68690;SDS011;55675;49.588;8.640;2022-10-17T10:37:57;5.60;;;2.40;;
68690;SDS011;55675;49.588;8.640;2022-10-17T10:40:29;3.53;;;2.37;;
68690;SDS011;55675;49.588;8.640;2022-10-17T10:43:20;2.77;;;2.50;;
68690;SDS011;55675;49.588;8.640;2022-10-17T10:46:06;3.07;;;2.00;;
68690;SDS011;55675;49.588;8.640;2022-10-17T10:48:50;3.67;;;2.00;;
68690;SDS011;55675;49.588;8.640;2022-10-17T10:51:43;2.37;;;2.17;;
68690;SDS011;55675;49.588;8.640;2022-10-17T10:54:13;3.77;;;2.10;;
68690;SDS011;55675;49.588;8.640;2022-10-17T10:56:49;2.87;;;2.20;;
68690;SDS011;55675;49.588;8.640;2022-10-17T11:02:18;5.17;;;2.90;;
68690;SDS011;55675;49.588;8.640;2022-10-17T11:04:57;2.57;;;2.23;;
68690;SDS011;55675;49.588;8.640;2022-10-17T11:10:29;3.97;;;2.47;;
68690;SDS011;55675;49.588;8.640;2022-10-17T11:13:16;4.50;;;2.60;;
68690;SDS011;55675;49.588;8.640;2022-10-17T11:18:52;3.73;;;2.17;;
68690;SDS011;55675;49.588;8.640;2022-10-17T11:21:27;3.17;;;2.20;;
68690;SDS011;55675;49.588;8.640;2022-10-17T11:24:30;6.50;;;2.50;;
68690;SDS011;55675;49.588;8.640;2022-10-17T11:27:03;3.70;;;2.77;;
68690;SDS011;55675;49.588;8.640;2022-10-17T11:29:30;5.57;;;2.40;;
68690;SDS011;55675;49.588;8.640;2022-10-17T11:32:00;4.60;;;1.90;;
68690;SDS011;55675;49.588;8.640;2022-10-17T11:34:33;2.50;;;2.00;;
68690;SDS011;55675;49.588;8.640;2022-10-17T11:37:08;3.97;;;2.03;;
68690;SDS011;55675;49.588;8.640;2022-10-17T11:39:54;2.27;;;2.00;;
68690;SDS011;55675;49.588;8.640;2022-10-17T11:42:29;2.87;;;2.30;;
68690;SDS011;55675;49.588;8.640;2022-10-17T11:45:01;3.33;;;2.30;;
68690;SDS011;55675;49.588;8.640;2022-10-17T11:47:35;3.77;;;2.20;;
68690;SDS011;55675;49.588;8.640;2022-10-17T11:52:50;2.07;;;1.97;;
68690;SDS011;55675;49.588;8.640;2022-10-17T11:55:22;2.30;;;2.00;;
68690;SDS011;55675;49.588;8.640;2022-10-17T12:01:00;4.43;;;2.20;;
68690;SDS011;55675;49.588;8.640;2022-10-17T12:06:34;5.13;;;2.33;;
68690;SDS011;55675;49.588;8.640;2022-10-17T12:09:06;3.23;;;2.00;;
68690;SDS011;55675;49.588;8.640;2022-10-17T12:11:56;5.13;;;2.13;;
68690;SDS011;55675;49.588;8.640;2022-10-17T12:17:02;3.83;;;2.23;;
68690;SDS011;55675;49.588;8.640;2022-10-17T12:19:30;5.03;;;2.10;;
68690;SDS011;55675;49.588;8.640;2022-10-17T12:21:59;5.27;;;2.57;;
68690;SDS011;55675;49.588;8.640;2022-10-17T12:24:30;2.87;;;2.17;;
68690;SDS011;55675;49.588;8.640;2022-10-17T12:27:21;3.00;;;2.10;;
68690;SDS011;55675;49.588;8.640;2022-10-17T12:30:05;2.37;;;2.17;;
68690;SDS011;55675;49.588;8.640;2022-10-17T12:32:34;4.33;;;2.17;;
68690;SDS011;55675;49.588;8.640;2022-10-17T12:35:00;4.07;;;2.30;;
68690;SDS011;55675;49.588;8.640;2022-10-17T12:37:58;2.70;;;2.20;;
68690;SDS011;55675;49.588;8.640;2022-10-17T12:43:01;5.13;;;2.27;;
68690;SDS011;55675;49.588;8.640;2022-10-17T12:45:49;2.47;;;2.27;;
68690;SDS011;55675;49.588;8.640;2022-10-17T12:51:07;4.73;;;2.40;;
68690;SDS011;55675;49.588;8.640;2022-10-17T12:56:11;2.43;;;2.10;;
68690;SDS011;55675;49.588;8.640;2022-10-17T12:58:37;2.23;;;2.03;;
68690;SDS011;55675;49.588;8.640;2022-10-17T13:01:13;5.83;;;2.20;;
68690;SDS011;55675;49.588;8.640;2022-10-17T13:03:50;2.83;;;2.10;;
68690;SDS011;55675;49.588;8.640;2022-10-17T13:06:27;2.80;;;2.30;;
68690;SDS011;55675;49.588;8.640;2022-10-17T13:09:03;2.20;;;2.00;;
68690;SDS011;55675;49.588;8.640;2022-10-17T13:11:33;2.13;;;1.90;;
68690;SDS011;55675;49.588;8.640;2022-10-17T13:14:00;2.80;;;2.03;;
68690;SDS011;55675;49.588;8.640;2022-10-17T13:16:40;3.37;;;2.20;;
68690;SDS011;55675;49.588;8.640;2022-10-17T13:19:19;3.50;;;1.93;;
68690;SDS011;55675;49.588;8.640;2022-10-17T13:21:51;5.63;;;2.37;;
68690;SDS011;55675;49.588;8.640;2022-10-17T13:26:47;2.07;;;1.97;;
68690;SDS011;55675;49.588;8.640;2022-10-17T13:29:13;2.10;;;1.90;;
68690;SDS011;55675;49.588;8.640;2022-10-17T13:31:40;3.25;;;2.00;;
68690;SDS011;55675;49.588;8.640;2022-10-17T13:34:14;4.60;;;2.05;;
68690;SDS011;55675;49.588;8.640;2022-10-17T13:36:48;3.38;;;2.17;;
68690;SDS011;55675;49.588;8.640;2022-10-17T13:39:18;2.75;;;1.88;;
68690;SDS011;55675;49.588;8.640;2022-10-17T13:41:45;3.17;;;2.30;;
68690;SDS011;55675;49.588;8.640;2022-10-17T13:44:13;7.88;;;2.78;;
68690;SDS011;55675;49.588;8.640;2022-10-17T13:46:42;6.00;;;2.00;;
68690;SDS011;55675;49.588;8.640;2022-10-17T13:49:11;2.70;;;2.10;;
68690;SDS011;55675;49.588;8.640;2022-10-17T13:51:50;5.80;;;2.30;;
68690;SDS011;55675;49.588;8.640;2022-10-17T13:54:37;2.03;;;1.90;;
68690;SDS011;55675;49.588;8.640;2022-10-17T13:57:05;5.13;;;2.47;;
68690;SDS011;55675;49.588;8.640;2022-10-17T13:59:45;2.30;;;2.07;;
68690;SDS011;55675;49.588;8.640;2022-10-17T14:02:21;5.57;;;2.20;;
68690;SDS011;55675;49.588;8.640;2022-10-17T14:07:48;3.73;;;2.20;;
68690;SDS011;55675;49.588;8.640;2022-10-17T14:10:32;3.53;;;2.20;;
68690;SDS011;55675;49.588;8.640;2022-10-17T14:13:00;2.23;;;1.97;;
68690;SDS011;55675;49.588;8.640;2022-10-17T14:15:29;4.10;;;2.13;;
68690;SDS011;55675;49.588;8.640;2022-10-17T14:17:57;4.20;;;2.30;;
68690;SDS011;55675;49.588;8.640;2022-10-17T14:20:25;4.17;;;2.40;;
68690;SDS011;55675;49.588;8.640;2022-10-17T14:22:52;3.10;;;2.20;;
68690;SDS011;55675;49.588;8.640;2022-10-17T14:28:00;5.13;;;2.10;;
68690;SDS011;55675;49.588;8.640;2022-10-17T14:30:35;2.40;;;2.13;;
68690;SDS011;55675;49.588;8.640;2022-10-17T14:33:10;4.50;;;2.00;;
68690;SDS011;55675;49.588;8.640;2022-10-17T14:35:50;8.70;;;2.40;;
68690;SDS011;55675;49.588;8.640;2022-10-17T14:38:16;3.43;;;2.10;;
68690;SDS011;55675;49.588;8.640;2022-10-17T14:40:52;2.17;;;1.90;;
68690;SDS011;55675;49.588;8.640;2022-10-17T14:43:20;4.83;;;2.07;;
68690;SDS011;55675;49.588;8.640;2022-10-17T14:45:49;4.60;;;2.30;;
68690;SDS011;55675;49.588;8.640;2022-10-17T14:48:19;3.73;;;2.50;;
68690;SDS011;55675;49.588;8.640;2022-10-17T14:53:39;3.60;;;2.03;;
68690;SDS011;55675;49.588;8.640;2022-10-17T14:56:23;3.23;;;2.47;;
68690;SDS011;55675;49.588;8.640;2022-10-17T14:58:51;4.33;;;2.60;;
68690;SDS011;55675;49.588;8.640;2022-10-17T15:01:17;2.67;;;2.47;;
68690;SDS011;55675;49.588;8.640;2022-10-17T15:03:43;3.03;;;2.70;;
68690;SDS011;55675;49.588;8.640;2022-10-17T15:06:14;4.77;;;2.97;;
68690;SDS011;55675;49.588;8.640;2022-10-17T15:08:45;4.80;;;2.60;;
68690;SDS011;55675;49.588;8.640;2022-10-17T15:11:11;2.93;;;2.53;;
68690;SDS011;55675;49.588;8.640;2022-10-17T15:13:36;3.90;;;2.50;;
68690;SDS011;55675;49.588;8.640;2022-10-17T15:16:11;3.10;;;2.70;;
68690;SDS011;55675;49.588;8.640;2022-10-17T15:18:54;4.87;;;2.10;;
68690;SDS011;55675;49.588;8.640;2022-10-17T15:21:20;5.50;;;2.43;;
68690;SDS011;55675;49.588;8.640;2022-10-17T15:23:48;4.13;;;2.40;;
68690;SDS011;55675;49.588;8.640;2022-10-17T15:26:16;5.13;;;2.63;;
68690;SDS011;55675;49.588;8.640;2022-10-17T15:28:50;5.27;;;2.60;;
68690;SDS011;55675;49.588;8.640;2022-10-17T15:31:18;2.30;;;2.10;;
68690;SDS011;55675;49.588;8.640;2022-10-17T15:33:45;3.57;;;3.13;;
68690;SDS011;55675;49.588;8.640;2022-10-17T15:36:28;4.53;;;2.80;;
68690;SDS011;55675;49.588;8.640;2022-10-17T15:39:02;4.50;;;2.63;;
68690;SDS011;55675;49.588;8.640;2022-10-17T15:41:29;2.73;;;2.50;;
68690;SDS011;55675;49.588;8.640;2022-10-17T15:43:56;3.17;;;2.57;;
68690;SDS011;55675;49.588;8.640;2022-10-17T15:46:23;4.23;;;2.57;;
68690;SDS011;55675;49.588;8.640;2022-10-17T15:48:53;4.53;;;2.50;;
68690;SDS011;55675;49.588;8.640;2022-10-17T15:51:19;5.23;;;3.07;;
68690;SDS011;55675;49.588;8.640;2022-10-17T15:53:45;4.00;;;3.13;;
68690;SDS011;55675;49.588;8.640;2022-10-17T15:56:17;3.27;;;2.90;;
68690;SDS011;55675;49.588;8.640;2022-10-17T15:58:43;4.67;;;2.83;;
68690;SDS011;55675;49.588;8.640;2022-10-17T16:01:10;3.60;;;3.10;;
68690;SDS011;55675;49.588;8.640;2022-10-17T16:03:45;5.30;;;3.07;;
68690;SDS011;55675;49.588;8.640;2022-10-17T16:06:12;4.00;;;2.80;;
68690;SDS011;55675;49.588;8.640;2022-10-17T16:08:38;3.73;;;2.70;;
68690;SDS011;55675;49.588;8.640;2022-10-17T16:11:03;7.07;;;3.27;;
68690;SDS011;55675;49.588;8.640;2022-10-17T16:13:29;5.77;;;2.90;;
68690;SDS011;55675;49.588;8.640;2022-10-17T16:15:55;4.83;;;3.20;;
68690;SDS011;55675;49.588;8.640;2022-10-17T16:18:21;3.30;;;3.00;;
68690;SDS011;55675;49.588;8.640;2022-10-17T16:20:46;5.77;;;3.07;;
68690;SDS011;55675;49.588;8.640;2022-10-17T16:23:12;5.20;;;3.33;;
68690;SDS011;55675;49.588;8.640;2022-10-17T16:25:38;4.97;;;3.10;;
68690;SDS011;55675;49.588;8.640;2022-10-17T16:28:04;3.33;;;2.97;;
68690;SDS011;55675;49.588;8.640;2022-10-17T16:30:32;6.07;;;3.10;;
68690;SDS011;55675;49.588;8.640;2022-10-17T16:33:01;4.07;;;2.90;;
68690;SDS011;55675;49.588;8.640;2022-10-17T16:35:28;4.80;;;3.10;;
68690;SDS011;55675;49.588;8.640;2022-10-17T16:37:54;5.00;;;3.30;;